createdAt,value
2023-05-23T00:00:07.098Z,94.95
2023-05-23T00:02:41.557Z,94.61
2023-05-23T00:05:10.453Z,94.75
2023-05-23T00:07:38.719Z,94.28
2023-05-23T00:10:07.801Z,94.37
2023-05-23T00:12:39.562Z,94.81
2023-05-23T00:15:10.035Z,95.07
2023-05-23T00:17:39.721Z,94.66
2023-05-23T00:20:11.119Z,94.95
2023-05-23T00:22:43.064Z,95.13
2023-05-23T00:25:12.268Z,95.45
2023-05-23T00:27:41.995Z,95.23
2023-05-23T00:30:10.777Z,95.14
2023-05-23T00:32:39.249Z,94.64
2023-05-23T00:35:08.896Z,94.24
2023-05-23T00:37:37.228Z,94.04
2023-05-23T00:40:06.539Z,94.20
2023-05-23T00:42:34.875Z,95.42
2023-05-23T00:45:05.012Z,95.81
2023-05-23T00:47:33.844Z,95.21
2023-05-23T00:50:02.292Z,95.35
2023-05-23T00:52:32.686Z,96.10
2023-05-23T00:55:01.148Z,95.10
2023-05-23T00:57:31.125Z,95.37
2023-05-23T00:59:59.421Z,94.37
2023-05-23T01:02:32.364Z,94.27
2023-05-23T01:05:02.500Z,94.12
2023-05-23T01:07:32.640Z,94.56
2023-05-23T01:10:01.161Z,94.86
2023-05-23T01:12:41.634Z,95.24
2023-05-23T01:15:13.571Z,94.75
2023-05-23T01:17:49.798Z,94.90
2023-05-23T01:20:22.962Z,95.84
2023-05-23T01:23:06.951Z,95.44
2023-05-23T01:25:59.529Z,96.13
2023-05-23T01:28:33.332Z,96.22
2023-05-23T01:31:05.219Z,96.38
2023-05-23T01:33:34.652Z,97.06
2023-05-23T01:36:04.635Z,96.91
2023-05-23T01:38:33.033Z,97.95
2023-05-23T01:41:01.994Z,98.33
2023-05-23T01:43:31.881Z,97.94
2023-05-23T01:46:01.617Z,97.26
2023-05-23T01:48:32.287Z,97.44
2023-05-23T01:51:00.870Z,97.01
2023-05-23T01:53:31.680Z,97.35
2023-05-23T01:56:03.422Z,97.37
2023-05-23T01:58:33.880Z,98.09
2023-05-23T02:01:03.240Z,97.51
2023-05-23T02:03:32.143Z,97.85
2023-05-23T02:06:00.389Z,97.52
2023-05-23T02:08:29.103Z,97.22
2023-05-23T02:10:57.616Z,97.39
2023-05-23T02:13:26.441Z,97.86
2023-05-23T02:15:56.252Z,98.81
2023-05-23T02:18:26.384Z,99.52
2023-05-23T02:21:14.620Z,99.84
2023-05-23T02:23:43.030Z,99.42
2023-05-23T02:26:11.394Z,99.05
2023-05-23T02:28:39.874Z,99.21
2023-05-23T02:31:10.261Z,99.17
2023-05-23T02:33:38.767Z,98.72
2023-05-23T02:36:07.399Z,98.77
2023-05-23T02:38:35.843Z,98.31
2023-05-23T02:41:04.191Z,98.37
2023-05-23T02:43:32.812Z,97.90
2023-05-23T02:46:01.197Z,97.56
2023-05-23T02:48:31.228Z,96.65
2023-05-23T02:50:59.704Z,96.23
2023-05-23T02:53:28.007Z,95.51
2023-05-23T02:55:56.771Z,95.05
2023-05-23T02:58:25.499Z,94.37
2023-05-23T03:00:53.882Z,93.37
2023-05-23T03:03:22.344Z,92.52
2023-05-23T03:05:52.288Z,92.35
2023-05-23T03:08:20.569Z,91.61
2023-05-23T03:10:48.852Z,91.55
2023-05-23T03:13:17.437Z,90.85
2023-05-23T03:15:47.366Z,90.66
2023-05-23T03:18:16.391Z,90.51
2023-05-23T03:20:44.678Z,90.13
2023-05-23T03:23:14.403Z,90.21
2023-05-23T03:25:44.018Z,90.00
2023-05-23T03:28:13.105Z,89.56
2023-05-23T03:30:41.515Z,89.26
2023-05-23T03:33:10.003Z,88.70
2023-05-23T03:35:38.398Z,88.24
2023-05-23T03:38:07.509Z,88.26
2023-05-23T03:40:37.262Z,88.44
2023-05-23T03:43:06.522Z,86.81
2023-05-23T03:45:38.102Z,86.37
2023-05-23T03:48:13.092Z,85.15
2023-05-23T03:50:43.027Z,84.69
2023-05-23T03:53:12.788Z,82.82
2023-05-23T03:55:42.834Z,81.40
2023-05-23T03:58:12.055Z,80.26
2023-05-23T04:00:42.216Z,79.27
2023-05-23T04:03:14.705Z,78.97
2023-05-23T04:05:43.405Z,78.82
2023-05-23T04:08:12.096Z,78.24
2023-05-23T04:10:40.586Z,77.73
2023-05-23T04:13:11.100Z,76.67
2023-05-23T04:15:40.012Z,75.86
2023-05-23T04:18:11.469Z,74.85
2023-05-23T04:20:39.927Z,73.96
2023-05-23T04:23:08.592Z,74.02
2023-05-23T04:25:41.057Z,74.35
2023-05-23T04:28:17.647Z,73.04
2023-05-23T04:30:46.686Z,72.26
2023-05-23T04:33:17.554Z,71.18
2023-05-23T04:35:46.989Z,70.46
2023-05-23T04:38:15.590Z,69.42
2023-05-23T04:40:44.605Z,68.79
2023-05-23T04:43:29.445Z,69.21
2023-05-23T04:46:03.762Z,68.98
2023-05-23T04:48:39.025Z,68.54
2023-05-23T04:51:07.923Z,67.61
2023-05-23T04:53:41.297Z,66.99
2023-05-23T04:56:11.673Z,66.60
2023-05-23T04:58:43.025Z,66.78
2023-05-23T05:01:14.370Z,66.25
2023-05-23T05:03:43.308Z,65.10
2023-05-23T05:06:11.721Z,64.75
2023-05-23T05:08:40.809Z,63.62
2023-05-23T05:11:10.976Z,64.25
2023-05-23T05:13:39.366Z,64.70
2023-05-23T05:16:09.434Z,65.41
2023-05-23T05:18:38.355Z,64.84
2023-05-23T05:21:08.274Z,64.76
2023-05-23T05:23:40.224Z,66.26
2023-05-23T05:26:10.205Z,68.75
2023-05-23T05:28:39.355Z,69.52
2023-05-23T05:31:10.227Z,69.83
2023-05-23T05:33:38.887Z,69.84
2023-05-23T05:36:13.412Z,71.11
2023-05-23T05:38:42.841Z,72.02
2023-05-23T05:41:11.692Z,73.01
2023-05-23T05:43:49.595Z,72.39
2023-05-23T05:46:19.533Z,73.58
2023-05-23T05:48:48.431Z,73.38
2023-05-23T05:51:18.764Z,73.26
2023-05-23T05:53:47.613Z,73.87
2023-05-23T05:56:16.732Z,74.10
2023-05-23T05:58:45.204Z,74.32
2023-05-23T06:01:15.843Z,74.71
2023-05-23T06:03:45.940Z,75.59
2023-05-23T06:06:14.819Z,74.97
2023-05-23T06:08:44.350Z,74.32
2023-05-23T06:11:17.196Z,73.76
2023-05-23T06:13:45.691Z,73.72
2023-05-23T06:16:15.323Z,73.69
2023-05-23T06:18:46.714Z,73.28
2023-05-23T06:21:15.186Z,72.52
2023-05-23T06:23:43.841Z,71.54
2023-05-23T06:26:12.354Z,69.72
2023-05-23T06:28:40.857Z,68.43
2023-05-23T06:31:11.001Z,68.13
2023-05-23T06:33:40.323Z,66.88
2023-05-23T06:36:10.140Z,65.88
2023-05-23T06:38:38.582Z,66.19
2023-05-23T06:41:08.306Z,65.17
2023-05-23T06:43:38.368Z,63.07
2023-05-23T06:46:23.487Z,62.59
2023-05-23T06:49:02.642Z,61.12
2023-05-23T06:51:38.220Z,60.88
2023-05-23T06:54:07.711Z,60.16
2023-05-23T06:56:36.749Z,60.00
2023-05-23T06:59:06.275Z,59.50
2023-05-23T07:01:35.078Z,58.41
2023-05-23T07:04:03.773Z,56.29
2023-05-23T07:06:32.933Z,55.44
2023-05-23T07:09:05.121Z,55.93
2023-05-23T07:11:33.675Z,55.23
2023-05-23T07:14:03.469Z,54.91
2023-05-23T07:16:41.544Z,55.30
2023-05-23T07:19:10.394Z,56.22
2023-05-23T07:21:48.756Z,55.88
2023-05-23T07:24:21.246Z,55.44
2023-05-23T07:26:50.320Z,55.50
2023-05-23T07:29:19.379Z,55.84
2023-05-23T07:31:49.465Z,54.55
2023-05-23T07:34:18.613Z,53.83
2023-05-23T07:36:56.579Z,54.61
2023-05-23T07:39:28.886Z,53.25
2023-05-23T07:41:59.537Z,53.49
2023-05-23T07:44:28.186Z,51.69
2023-05-23T07:46:57.124Z,51.63
2023-05-23T07:49:26.822Z,50.70
2023-05-23T07:51:56.181Z,49.90
2023-05-23T07:54:24.711Z,49.73
2023-05-23T07:56:58.586Z,50.32
2023-05-23T07:59:27.709Z,50.14
2023-05-23T08:01:56.580Z,50.09
2023-05-23T08:04:27.480Z,50.67
2023-05-23T08:09:33.374Z,49.37
2023-05-23T08:12:03.518Z,49.10
2023-05-23T08:14:49.150Z,48.57
2023-05-23T08:17:34.358Z,48.98
2023-05-23T08:20:05.244Z,47.88
2023-05-23T08:22:34.820Z,46.13
2023-05-23T08:25:04.027Z,46.33
2023-05-23T08:27:36.871Z,45.31
2023-05-23T08:30:14.505Z,45.30
2023-05-23T08:32:42.908Z,45.59
2023-05-23T08:35:11.300Z,45.85
2023-05-23T08:37:43.219Z,46.03
2023-05-23T08:40:16.205Z,44.71
2023-05-23T08:42:51.134Z,44.69
2023-05-23T08:45:20.012Z,44.28
2023-05-23T08:47:49.085Z,44.17
2023-05-23T08:50:22.897Z,44.43
2023-05-23T08:52:57.182Z,45.05
2023-05-23T08:55:29.587Z,42.85
2023-05-23T08:58:01.926Z,43.34
2023-05-23T09:00:44.584Z,45.07
2023-05-23T09:03:14.388Z,43.98
2023-05-23T09:06:03.727Z,44.02
2023-05-23T09:08:33.122Z,43.71
2023-05-23T09:11:03.220Z,44.93
2023-05-23T09:13:36.463Z,42.62
2023-05-23T09:16:09.531Z,43.79
2023-05-23T09:18:44.564Z,44.21
2023-05-23T09:21:16.119Z,43.97
2023-05-23T09:24:08.650Z,43.72
2023-05-23T09:26:38.855Z,41.52
2023-05-23T09:29:08.897Z,42.16
2023-05-23T09:31:37.739Z,43.28
2023-05-23T09:34:07.021Z,43.97
2023-05-23T09:36:36.587Z,44.75
2023-05-23T09:39:06.657Z,43.18
2023-05-23T09:41:36.062Z,42.78
2023-05-23T09:44:09.730Z,43.56
2023-05-23T09:46:39.567Z,43.55
2023-05-23T09:49:18.140Z,40.07
2023-05-23T09:52:01.667Z,39.64
2023-05-23T09:54:30.116Z,39.52
2023-05-23T09:57:01.640Z,40.75
2023-05-23T09:59:36.187Z,41.31
2023-05-23T10:02:07.915Z,41.88
2023-05-23T10:04:38.437Z,41.35
2023-05-23T10:07:14.532Z,41.86
2023-05-23T10:09:47.048Z,40.78
2023-05-23T10:12:48.906Z,40.18
2023-05-23T10:15:21.451Z,40.99
2023-05-23T10:18:03.877Z,40.29
2023-05-23T10:20:33.536Z,39.37
2023-05-23T10:23:02.554Z,39.22
2023-05-23T10:25:31.041Z,38.94
2023-05-23T10:28:03.271Z,39.03
2023-05-23T10:30:35.530Z,39.05
2023-05-23T10:33:06.171Z,38.31
2023-05-23T10:35:46.925Z,38.03
2023-05-23T10:38:29.485Z,39.30
2023-05-23T10:41:07.546Z,38.02
2023-05-23T10:43:45.954Z,37.31
2023-05-23T10:46:16.298Z,35.96
2023-05-23T10:48:45.841Z,36.45
2023-05-23T10:51:15.547Z,36.79
2023-05-23T10:53:45.309Z,35.34
2023-05-23T10:56:22.517Z,37.73
2023-05-23T10:58:54.996Z,36.01
2023-05-23T11:01:25.720Z,35.41
2023-05-23T11:03:56.102Z,35.60
2023-05-23T11:06:33.676Z,35.58
2023-05-23T11:09:07.509Z,36.18
2023-05-23T11:11:55.635Z,35.96
2023-05-23T11:14:33.828Z,36.25
2023-05-23T11:17:17.813Z,35.45
2023-05-23T11:20:00.998Z,36.43
2023-05-23T11:22:30.420Z,38.04
2023-05-23T11:24:59.505Z,38.21
2023-05-23T11:27:29.598Z,36.93
2023-05-23T11:30:03.084Z,34.91
2023-05-23T11:32:37.242Z,36.82
2023-05-23T11:35:07.226Z,38.66
2023-05-23T11:37:36.219Z,37.20
2023-05-23T11:40:32.637Z,36.48
2023-05-23T11:43:02.331Z,37.20
2023-05-23T11:45:31.923Z,36.00
2023-05-23T11:48:07.244Z,36.34
2023-05-23T11:50:44.340Z,36.20
2023-05-23T11:53:13.122Z,36.80
2023-05-23T11:55:42.369Z,34.99
2023-05-23T11:58:12.427Z,35.96
2023-05-23T12:00:45.372Z,35.23
2023-05-23T12:03:15.445Z,35.81
2023-05-23T12:05:45.217Z,36.74
2023-05-23T12:08:14.651Z,36.03
2023-05-23T12:10:51.985Z,35.38
2023-05-23T12:13:20.556Z,35.47
2023-05-23T12:15:52.784Z,35.63
2023-05-23T12:18:23.053Z,36.95
2023-05-23T12:20:51.771Z,35.56
2023-05-23T12:23:21.224Z,35.51
2023-05-23T12:25:52.862Z,36.68
2023-05-23T12:28:21.699Z,35.82
2023-05-23T12:30:50.402Z,35.36
2023-05-23T12:33:20.735Z,35.40
2023-05-23T12:35:50.736Z,34.84
2023-05-23T12:38:19.916Z,34.90
2023-05-23T12:40:48.267Z,34.93
2023-05-23T12:43:16.958Z,35.58
2023-05-23T12:45:45.234Z,35.61
2023-05-23T12:48:13.991Z,34.88
2023-05-23T12:50:42.371Z,35.19
2023-05-23T12:53:12.221Z,34.31
2023-05-23T12:55:40.847Z,35.34
2023-05-23T12:58:09.399Z,35.40
2023-05-23T13:00:37.870Z,34.45
2023-05-23T13:03:06.945Z,35.33
2023-05-23T13:05:35.369Z,34.44
2023-05-23T13:08:03.757Z,35.05
2023-05-23T13:10:34.095Z,34.47
2023-05-23T13:13:02.446Z,34.00
2023-05-23T13:15:30.968Z,34.46
2023-05-23T13:17:59.560Z,35.46
2023-05-23T13:20:30.249Z,35.70
2023-05-23T13:22:58.835Z,35.77
2023-05-23T13:25:28.204Z,36.02
2023-05-23T13:27:58.080Z,36.89
2023-05-23T13:30:26.718Z,36.31
2023-05-23T13:32:55.318Z,35.95
2023-05-23T13:35:23.881Z,36.12
2023-05-23T13:37:52.368Z,36.53
2023-05-23T13:40:22.470Z,35.76
2023-05-23T13:42:52.024Z,36.33
2023-05-23T13:45:23.101Z,37.74
2023-05-23T13:47:51.709Z,37.70
2023-05-23T13:50:20.759Z,37.72
2023-05-23T13:52:49.633Z,37.45
2023-05-23T13:55:19.035Z,36.72
2023-05-23T13:57:48.822Z,36.56
2023-05-23T14:00:17.639Z,36.55
2023-05-23T14:02:47.519Z,37.21
2023-05-23T14:05:16.001Z,36.87
2023-05-23T14:07:47.295Z,36.57
2023-05-23T14:10:17.397Z,37.55
2023-05-23T14:12:46.060Z,38.99
2023-05-23T14:15:14.608Z,38.63
2023-05-23T14:17:43.051Z,38.18
2023-05-23T14:20:13.660Z,37.62
2023-05-23T14:22:42.131Z,37.36
2023-05-23T14:25:11.739Z,37.39
2023-05-23T14:27:40.307Z,36.74
2023-05-23T14:30:09.945Z,37.22
2023-05-23T14:32:39.685Z,37.12
2023-05-23T14:35:10.738Z,35.89
2023-05-23T14:37:40.552Z,36.00
2023-05-23T14:40:11.076Z,35.63
2023-05-23T14:42:39.688Z,35.32
2023-05-23T14:45:08.586Z,37.61
2023-05-23T14:47:37.517Z,37.43
2023-05-23T14:50:06.501Z,37.66
2023-05-23T14:52:35.417Z,37.07
2023-05-23T14:55:05.574Z,37.30
2023-05-23T14:57:34.233Z,38.15
2023-05-23T15:00:05.023Z,37.28
2023-05-23T15:02:36.412Z,38.01
2023-05-23T15:05:04.913Z,38.57
2023-05-23T15:07:33.758Z,40.29
2023-05-23T15:10:03.014Z,41.03
2023-05-23T15:12:35.092Z,40.87
2023-05-23T15:15:04.476Z,42.63
2023-05-23T15:17:37.730Z,42.70
2023-05-23T15:20:07.768Z,42.67
2023-05-23T15:22:39.848Z,42.97
2023-05-23T15:25:10.635Z,42.92
2023-05-23T15:27:40.331Z,43.03
2023-05-23T15:30:09.964Z,42.35
2023-05-23T15:32:38.499Z,42.33
2023-05-23T15:35:07.855Z,42.73
2023-05-23T15:37:36.177Z,44.12
2023-05-23T15:40:05.061Z,44.85
2023-05-23T15:42:33.981Z,44.63
2023-05-23T15:45:03.821Z,46.16
2023-05-23T15:47:36.983Z,47.09
2023-05-23T15:50:06.104Z,47.97
2023-05-23T15:52:34.444Z,48.19
2023-05-23T15:55:05.656Z,48.08
2023-05-23T15:57:34.152Z,47.63
2023-05-23T16:00:04.049Z,47.51
2023-05-23T16:02:40.846Z,46.48
2023-05-23T16:05:09.524Z,45.96
2023-05-23T16:07:38.021Z,47.15
2023-05-23T16:10:07.513Z,47.36
2023-05-23T16:12:36.142Z,46.05
2023-05-23T16:15:06.563Z,46.63
2023-05-23T16:17:34.913Z,45.84
2023-05-23T16:20:04.425Z,45.42
2023-05-23T16:22:33.215Z,46.14
2023-05-23T16:25:01.700Z,46.89
2023-05-23T16:27:30.826Z,47.49
2023-05-23T16:29:59.128Z,47.59
2023-05-23T16:32:29.475Z,48.11
2023-05-23T16:34:57.814Z,47.53
2023-05-23T16:37:26.140Z,47.91
2023-05-23T16:39:54.377Z,47.13
2023-05-23T16:42:22.655Z,48.03
2023-05-23T16:44:50.962Z,47.81
2023-05-23T16:47:19.395Z,47.70
2023-05-23T16:49:49.066Z,48.53
2023-05-23T16:52:18.614Z,49.28
2023-05-23T16:54:47.129Z,49.40
2023-05-23T16:57:15.732Z,49.46
2023-05-23T16:59:44.146Z,49.57
2023-05-23T17:02:16.213Z,49.52
2023-05-23T17:04:44.845Z,50.12
2023-05-23T17:07:15.967Z,50.39
2023-05-23T17:09:44.914Z,50.37
2023-05-23T17:12:13.938Z,50.36
2023-05-23T17:14:42.754Z,50.28
2023-05-23T17:17:11.633Z,50.51
2023-05-23T17:19:41.070Z,51.27
2023-05-23T17:22:09.803Z,51.57
2023-05-23T17:24:39.493Z,51.86
2023-05-23T17:27:08.250Z,51.89
2023-05-23T17:29:36.735Z,51.74
2023-05-23T17:32:05.350Z,51.79
2023-05-23T17:34:33.673Z,51.82
2023-05-23T17:37:01.998Z,51.45
2023-05-23T17:39:30.356Z,51.95
2023-05-23T17:42:01.065Z,52.26
2023-05-23T17:44:29.416Z,52.34
2023-05-23T17:46:57.812Z,52.60
2023-05-23T17:49:26.380Z,52.91
2023-05-23T17:51:54.874Z,53.93
2023-05-23T17:54:23.314Z,54.58
2023-05-23T17:56:51.704Z,55.60
2023-05-23T17:59:22.072Z,56.10
2023-05-23T18:01:50.527Z,56.89
2023-05-23T18:04:19.890Z,57.66
2023-05-23T18:06:48.582Z,58.37
2023-05-23T18:09:17.405Z,59.41
2023-05-23T18:11:45.842Z,59.77
2023-05-23T18:14:14.195Z,59.82
2023-05-23T18:16:44.043Z,59.75
2023-05-23T18:19:12.540Z,59.63
2023-05-23T18:21:40.949Z,59.93
2023-05-23T18:24:11.697Z,60.39
2023-05-23T18:26:42.434Z,61.07
2023-05-23T18:29:10.812Z,61.53
2023-05-23T18:31:39.148Z,62.38
2023-05-23T18:34:09.089Z,62.54
2023-05-23T18:36:37.981Z,62.57
2023-05-23T18:39:06.348Z,62.88
2023-05-23T18:41:34.658Z,63.57
2023-05-23T18:44:05.100Z,64.24
2023-05-23T18:46:33.484Z,64.77
2023-05-23T18:49:01.892Z,65.97
2023-05-23T18:51:32.377Z,66.71
2023-05-23T18:54:00.733Z,67.50
2023-05-23T18:56:29.082Z,68.11
2023-05-23T18:58:57.400Z,68.31
2023-05-23T19:01:26.138Z,68.16
2023-05-23T19:03:54.845Z,68.21
2023-05-23T19:06:23.236Z,68.12
2023-05-23T19:08:53.092Z,68.14
2023-05-23T19:11:21.861Z,68.70
2023-05-23T19:13:50.548Z,68.98
2023-05-23T19:16:20.631Z,69.47
2023-05-23T19:18:49.109Z,70.37
2023-05-23T19:21:17.501Z,71.19
2023-05-23T19:23:46.046Z,71.67
2023-05-23T19:26:17.324Z,72.06
2023-05-23T19:28:46.947Z,71.75
2023-05-23T19:31:15.282Z,71.86
2023-05-23T19:33:43.759Z,72.51
2023-05-23T19:36:12.267Z,73.32
2023-05-23T19:38:40.840Z,73.07
2023-05-23T19:41:15.517Z,73.34
2023-05-23T19:43:51.961Z,73.56
2023-05-23T19:46:20.612Z,73.89
2023-05-23T19:48:49.006Z,73.84
2023-05-23T19:51:17.544Z,73.30
2023-05-23T19:53:45.807Z,73.55
2023-05-23T19:56:14.188Z,73.46
2023-05-23T19:58:43.051Z,73.08
2023-05-23T20:01:12.910Z,74.38
2023-05-23T20:03:41.618Z,74.52
2023-05-23T20:06:10.991Z,74.23
2023-05-23T20:08:39.490Z,74.78
2023-05-23T20:11:07.901Z,74.37
2023-05-23T20:13:37.744Z,74.97
2023-05-23T20:16:07.943Z,74.69
2023-05-23T20:18:37.704Z,74.44
2023-05-23T20:21:06.337Z,74.08
2023-05-23T20:23:34.846Z,74.01
2023-05-23T20:26:03.497Z,74.46
2023-05-23T20:28:32.825Z,74.87
2023-05-23T20:31:01.550Z,75.02
2023-05-23T20:33:30.082Z,75.76
2023-05-23T20:36:00.014Z,75.90
2023-05-23T20:38:29.086Z,75.79
2023-05-23T20:40:57.481Z,76.37
2023-05-23T20:43:28.321Z,76.54
2023-05-23T20:45:57.517Z,76.69
2023-05-23T20:48:26.534Z,77.03
2023-05-23T20:50:55.797Z,77.05
2023-05-23T20:53:25.534Z,77.55
2023-05-23T20:55:54.009Z,77.60
2023-05-23T20:58:22.648Z,77.40
2023-05-23T21:00:51.790Z,76.49
2023-05-23T21:03:20.603Z,77.03
2023-05-23T21:05:49.125Z,76.69
2023-05-23T21:08:19.064Z,77.07
2023-05-23T21:10:52.272Z,76.97
2023-05-23T21:13:22.645Z,77.68
2023-05-23T21:15:51.410Z,77.53
2023-05-23T21:18:19.718Z,78.19
2023-05-23T21:20:48.110Z,78.57
2023-05-23T21:23:16.644Z,78.22
2023-05-23T21:25:44.967Z,78.48
2023-05-23T21:28:14.822Z,78.33
2023-05-23T21:30:43.946Z,78.49
2023-05-23T21:33:12.766Z,78.37
2023-05-23T21:35:45.007Z,78.32
2023-05-23T21:38:13.353Z,78.39
2023-05-23T21:40:42.046Z,79.18
2023-05-23T21:43:10.675Z,79.74
2023-05-23T21:45:40.592Z,79.66
2023-05-23T21:48:09.014Z,80.22
2023-05-23T21:50:37.756Z,79.92
2023-05-23T21:53:06.148Z,80.12
2023-05-23T21:55:34.412Z,80.33
2023-05-23T21:58:02.815Z,79.90
2023-05-23T22:00:31.310Z,79.90
2023-05-23T22:03:01.254Z,79.54
2023-05-23T22:05:32.641Z,79.50
2023-05-23T22:08:01.071Z,79.51
2023-05-23T22:10:29.420Z,80.07
2023-05-23T22:12:57.786Z,80.47
2023-05-23T22:15:26.425Z,81.16
2023-05-23T22:17:56.201Z,81.57
2023-05-23T22:20:26.117Z,81.49
2023-05-23T22:22:54.469Z,82.15
2023-05-23T22:25:23.059Z,82.02
2023-05-23T22:27:51.374Z,82.09
2023-05-23T22:30:19.761Z,82.49
2023-05-23T22:32:48.112Z,82.29
2023-05-23T22:35:17.723Z,82.05
2023-05-23T22:37:48.037Z,81.76
2023-05-23T22:40:16.661Z,81.57
2023-05-23T22:42:44.950Z,81.61
2023-05-23T22:45:13.804Z,81.48
2023-05-23T22:47:42.326Z,81.40
2023-05-23T22:50:15.186Z,81.52
2023-05-23T22:52:44.065Z,81.93
2023-05-23T22:55:13.910Z,81.92
2023-05-23T22:57:42.182Z,82.03
2023-05-23T23:00:13.530Z,82.22
2023-05-23T23:02:44.184Z,82.67
2023-05-23T23:05:13.016Z,82.98
2023-05-23T23:07:41.405Z,82.60
2023-05-23T23:10:10.939Z,82.57
2023-05-23T23:12:40.782Z,82.76
2023-05-23T23:15:10.397Z,82.99
2023-05-23T23:17:38.993Z,82.75
2023-05-23T23:20:09.298Z,83.19
2023-05-23T23:22:37.946Z,83.08
2023-05-23T23:25:10.340Z,83.15
2023-05-23T23:27:41.465Z,83.76
2023-05-23T23:30:10.793Z,84.34
2023-05-23T23:32:39.438Z,84.43
2023-05-23T23:35:08.248Z,84.08
2023-05-23T23:37:36.852Z,83.96
2023-05-23T23:40:06.327Z,83.99
2023-05-23T23:42:34.789Z,83.87
2023-05-23T23:45:05.126Z,83.47
2023-05-23T23:47:35.933Z,83.10
2023-05-23T23:50:04.391Z,83.12
2023-05-23T23:52:33.725Z,82.66
2023-05-23T23:55:02.382Z,82.51
2023-05-23T23:57:34.621Z,82.59
